createdAt,value
2023-05-24T00:00:43.292Z,35.78
2023-05-24T00:01:43.104Z,35.78
2023-05-24T00:02:43.367Z,35.78
2023-05-24T00:03:43.328Z,35.79
2023-05-24T00:04:43.320Z,35.77
2023-05-24T00:05:43.397Z,35.78
2023-05-24T00:06:43.425Z,35.79
2023-05-24T00:07:43.471Z,35.76
2023-05-24T00:08:43.560Z,35.77
2023-05-24T00:09:43.590Z,35.75
2023-05-24T00:10:43.902Z,35.74
2023-05-24T00:11:43.668Z,35.74
2023-05-24T00:12:43.720Z,35.75
2023-05-24T00:13:43.771Z,35.80
2023-05-24T00:14:43.837Z,35.74
2023-05-24T00:15:43.885Z,35.78
2023-05-24T00:16:43.991Z,35.78
2023-05-24T00:17:44.057Z,35.80
2023-05-24T00:18:44.048Z,35.71
2023-05-24T00:19:44.079Z,35.75
2023-05-24T00:20:44.381Z,35.76
2023-05-24T00:21:44.183Z,35.73
2023-05-24T00:22:44.247Z,35.79
2023-05-24T00:23:44.297Z,35.74
2023-05-24T00:24:44.354Z,35.70
2023-05-24T00:25:44.395Z,35.78
2023-05-24T00:26:44.467Z,35.73
2023-05-24T00:27:44.488Z,35.75
2023-05-24T00:28:44.511Z,35.78
2023-05-24T00:29:44.541Z,35.78
2023-05-24T00:30:44.762Z,35.76
2023-05-24T00:31:44.630Z,35.76
2023-05-24T00:32:44.725Z,35.75
2023-05-24T00:33:44.693Z,35.78
2023-05-24T00:34:44.716Z,35.77
2023-05-24T00:35:44.762Z,35.78
2023-05-24T00:36:44.814Z,35.79
2023-05-24T00:37:44.870Z,35.79
2023-05-24T00:38:44.907Z,35.73
2023-05-24T00:39:44.935Z,35.74
2023-05-24T00:40:44.982Z,35.82
2023-05-24T00:41:44.974Z,35.80
2023-05-24T00:42:45.023Z,35.76
2023-05-24T00:43:45.047Z,35.74
2023-05-24T00:44:45.085Z,35.73
2023-05-24T00:45:45.149Z,35.75
2023-05-24T00:46:45.141Z,35.78
2023-05-24T00:47:45.221Z,35.80
2023-05-24T00:48:45.188Z,35.78
2023-05-24T00:49:45.216Z,35.84
2023-05-24T00:50:45.223Z,35.71
2023-05-24T00:51:45.197Z,35.76
2023-05-24T00:52:45.195Z,35.75
2023-05-24T00:53:45.157Z,35.80
2023-05-24T00:54:45.144Z,35.78
2023-05-24T00:55:45.135Z,35.78
2023-05-24T00:56:45.118Z,35.76
2023-05-24T00:57:45.100Z,35.78
2023-05-24T00:58:45.103Z,35.76
2023-05-24T00:59:45.099Z,35.75
2023-05-24T01:00:45.075Z,35.78
2023-05-24T01:01:45.087Z,35.76
2023-05-24T01:02:45.180Z,35.77
2023-05-24T01:03:45.195Z,35.78
2023-05-24T01:04:45.027Z,35.78
2023-05-24T01:05:45.007Z,35.73
2023-05-24T01:06:45.055Z,35.76
2023-05-24T01:07:44.978Z,35.84
2023-05-24T01:08:44.991Z,35.81
2023-05-24T01:09:44.958Z,35.77
2023-05-24T01:10:44.996Z,35.76
2023-05-24T01:11:44.957Z,35.78
2023-05-24T01:12:44.965Z,35.82
2023-05-24T01:13:44.955Z,35.78
2023-05-24T01:14:45.004Z,35.76
2023-05-24T01:15:45.070Z,35.81
2023-05-24T01:16:45.061Z,35.80
2023-05-24T01:17:45.108Z,35.83
2023-05-24T01:18:45.099Z,35.82
2023-05-24T01:19:45.114Z,35.81
2023-05-24T01:20:45.447Z,35.78
2023-05-24T01:21:45.148Z,35.78
2023-05-24T01:22:45.199Z,35.80
2023-05-24T01:23:45.231Z,35.78
2023-05-24T01:24:45.284Z,35.81
2023-05-24T01:25:45.311Z,35.80
2023-05-24T01:26:45.332Z,35.82
2023-05-24T01:27:45.390Z,35.84
2023-05-24T01:28:45.405Z,35.82
2023-05-24T01:29:45.399Z,35.78
2023-05-24T01:30:45.455Z,35.81
2023-05-24T01:31:45.573Z,35.80
2023-05-24T01:32:45.548Z,35.78
2023-05-24T01:33:45.503Z,35.80
2023-05-24T01:34:45.570Z,35.82
2023-05-24T01:35:45.654Z,35.80
2023-05-24T01:36:45.645Z,35.81
2023-05-24T01:37:45.698Z,35.80
2023-05-24T01:38:45.720Z,35.81
2023-05-24T01:39:45.745Z,35.82
2023-05-24T01:40:45.832Z,35.79
2023-05-24T01:41:45.852Z,35.82
2023-05-24T01:42:45.863Z,35.82
2023-05-24T01:43:45.904Z,35.81
2023-05-24T01:44:45.939Z,35.78
2023-05-24T01:45:46.000Z,35.78
2023-05-24T01:46:46.077Z,35.81
2023-05-24T01:47:46.077Z,35.81
2023-05-24T01:48:46.077Z,35.78
2023-05-24T01:49:46.104Z,35.83
2023-05-24T01:50:46.144Z,35.77
2023-05-24T01:51:46.175Z,35.82
2023-05-24T01:52:46.139Z,35.81
2023-05-24T01:53:46.340Z,35.83
2023-05-24T01:54:46.232Z,35.84
2023-05-24T01:55:46.255Z,35.79
2023-05-24T01:56:46.250Z,35.81
2023-05-24T01:57:46.300Z,35.80
2023-05-24T01:58:46.292Z,35.79
2023-05-24T01:59:46.326Z,35.82
2023-05-24T02:00:46.407Z,35.76
2023-05-24T02:01:46.330Z,35.83
2023-05-24T02:02:46.439Z,35.84
2023-05-24T02:03:46.319Z,35.84
2023-05-24T02:04:46.346Z,35.81
2023-05-24T02:05:46.334Z,35.83
2023-05-24T02:06:46.331Z,35.78
2023-05-24T02:07:46.337Z,35.78
2023-05-24T02:08:46.366Z,35.78
2023-05-24T02:09:46.372Z,35.84
2023-05-24T02:10:46.366Z,35.84
2023-05-24T02:11:46.342Z,35.82
2023-05-24T02:12:46.342Z,35.82
2023-05-24T02:13:46.363Z,35.83
2023-05-24T02:14:46.370Z,35.83
2023-05-24T02:15:46.378Z,35.79
2023-05-24T02:16:46.408Z,35.83
2023-05-24T02:17:46.449Z,35.82
2023-05-24T02:18:46.430Z,35.83
2023-05-24T02:19:46.449Z,35.89
2023-05-24T02:20:46.567Z,35.81
2023-05-24T02:21:46.485Z,35.82
2023-05-24T02:22:46.468Z,35.82
2023-05-24T02:23:46.465Z,35.83
2023-05-24T02:24:46.424Z,35.82
2023-05-24T02:25:46.456Z,35.84
2023-05-24T02:26:46.404Z,35.80
2023-05-24T02:27:46.394Z,35.87
2023-05-24T02:28:46.386Z,35.82
2023-05-24T02:29:46.355Z,35.87
2023-05-24T02:30:46.374Z,35.83
2023-05-24T02:31:46.332Z,35.83
2023-05-24T02:32:46.375Z,35.77
2023-05-24T02:33:46.302Z,35.83
2023-05-24T02:34:46.281Z,35.82
2023-05-24T02:35:46.277Z,35.89
2023-05-24T02:36:46.281Z,35.84
2023-05-24T02:37:46.254Z,35.82
2023-05-24T02:38:46.275Z,35.81
2023-05-24T02:39:46.233Z,35.79
2023-05-24T02:40:46.207Z,35.83
2023-05-24T02:41:46.200Z,35.83
2023-05-24T02:42:46.199Z,35.85
2023-05-24T02:43:46.183Z,35.85
2023-05-24T02:44:46.175Z,35.81
2023-05-24T02:45:46.153Z,35.81
2023-05-24T02:46:46.210Z,35.81
2023-05-24T02:47:46.171Z,35.86
2023-05-24T02:48:46.110Z,35.85
2023-05-24T02:49:46.101Z,35.80
2023-05-24T02:50:46.094Z,35.88
2023-05-24T02:51:46.074Z,35.80
2023-05-24T02:52:46.110Z,35.85
2023-05-24T02:53:46.139Z,35.84
2023-05-24T02:54:46.144Z,35.83
2023-05-24T02:55:46.143Z,35.86
2023-05-24T02:56:46.145Z,35.85
2023-05-24T02:57:46.134Z,35.81
2023-05-24T02:58:46.131Z,35.83
2023-05-24T02:59:46.100Z,35.88
2023-05-24T03:00:46.099Z,35.86
2023-05-24T03:01:46.118Z,35.83
2023-05-24T03:02:46.136Z,35.84
2023-05-24T03:03:46.208Z,35.84
2023-05-24T03:04:46.037Z,35.85
2023-05-24T03:05:46.048Z,35.84
2023-05-24T03:06:46.023Z,35.85
2023-05-24T03:07:46.017Z,35.88
2023-05-24T03:08:46.024Z,35.85
2023-05-24T03:09:46.014Z,35.87
2023-05-24T03:10:45.986Z,35.89
2023-05-24T03:11:45.973Z,35.89
2023-05-24T03:12:45.979Z,35.82
2023-05-24T03:13:45.956Z,35.85
2023-05-24T03:14:45.938Z,35.89
2023-05-24T03:15:45.945Z,35.80
2023-05-24T03:16:46.009Z,35.86
2023-05-24T03:17:45.960Z,35.90
2023-05-24T03:18:45.917Z,35.85
2023-05-24T03:19:45.897Z,35.83
2023-05-24T03:20:45.951Z,35.87
2023-05-24T03:21:45.890Z,35.90
2023-05-24T03:22:45.866Z,35.86
2023-05-24T03:23:45.875Z,35.88
2023-05-24T03:24:45.841Z,35.85
2023-05-24T03:25:45.841Z,35.85
2023-05-24T03:26:45.828Z,35.89
2023-05-24T03:27:45.845Z,35.86
2023-05-24T03:28:45.828Z,35.87
2023-05-24T03:29:45.834Z,35.89
2023-05-24T03:30:45.809Z,35.87
2023-05-24T03:31:45.834Z,35.84
2023-05-24T03:32:45.873Z,35.90
2023-05-24T03:33:45.805Z,35.87
2023-05-24T03:34:45.786Z,35.87
2023-05-24T03:35:45.776Z,35.89
2023-05-24T03:36:45.783Z,35.89
2023-05-24T03:37:45.770Z,35.83
2023-05-24T03:38:45.801Z,35.89
2023-05-24T03:39:45.758Z,35.89
2023-05-24T03:40:45.758Z,35.87
2023-05-24T03:41:45.760Z,35.86
2023-05-24T03:42:45.738Z,35.86
2023-05-24T03:43:45.727Z,35.86
2023-05-24T03:44:45.717Z,35.89
2023-05-24T03:45:45.793Z,35.86
2023-05-24T03:46:45.693Z,35.90
2023-05-24T03:47:45.763Z,35.87
2023-05-24T03:48:45.690Z,35.89
2023-05-24T03:49:45.699Z,35.89
2023-05-24T03:50:45.752Z,35.87
2023-05-24T03:51:45.687Z,35.89
2023-05-24T03:52:45.696Z,35.86
2023-05-24T03:53:45.679Z,35.90
2023-05-24T03:54:45.672Z,35.83
2023-05-24T03:55:45.669Z,35.90
2023-05-24T03:56:45.668Z,35.90
2023-05-24T03:57:45.677Z,35.86
2023-05-24T03:58:45.647Z,35.93
2023-05-24T03:59:45.650Z,35.88
2023-05-24T04:00:45.616Z,35.91
2023-05-24T04:01:45.635Z,35.85
2023-05-24T04:02:45.676Z,35.90
2023-05-24T04:03:45.860Z,35.84
2023-05-24T04:04:45.588Z,35.86
2023-05-24T04:05:45.585Z,35.88
2023-05-24T04:06:45.585Z,35.88
2023-05-24T04:07:45.589Z,35.87
2023-05-24T04:08:45.566Z,35.82
2023-05-24T04:09:45.562Z,35.86
2023-05-24T04:10:45.630Z,35.85
2023-05-24T04:11:45.546Z,35.91
2023-05-24T04:12:45.544Z,35.87
2023-05-24T04:13:45.549Z,35.87
2023-05-24T04:14:45.504Z,35.88
2023-05-24T04:15:45.498Z,35.84
2023-05-24T04:16:45.542Z,35.91
2023-05-24T04:17:45.632Z,35.89
2023-05-24T04:18:45.615Z,35.83
2023-05-24T04:19:45.467Z,35.87
2023-05-24T04:20:45.585Z,35.90
2023-05-24T04:21:45.470Z,35.87
2023-05-24T04:22:45.443Z,35.88
2023-05-24T04:23:45.472Z,35.91
2023-05-24T04:24:45.467Z,35.84
2023-05-24T04:25:45.449Z,35.86
2023-05-24T04:26:45.444Z,35.91
2023-05-24T04:27:45.457Z,35.90
2023-05-24T04:28:45.456Z,35.86
2023-05-24T04:29:45.536Z,35.85
2023-05-24T04:30:45.480Z,35.85
2023-05-24T04:31:45.576Z,35.87
2023-05-24T04:32:45.478Z,35.84
2023-05-24T04:33:45.449Z,35.86
2023-05-24T04:34:45.464Z,35.85
2023-05-24T04:35:45.461Z,35.82
2023-05-24T04:36:45.456Z,35.86
2023-05-24T04:37:45.437Z,35.83
2023-05-24T04:38:45.412Z,35.82
2023-05-24T04:39:45.403Z,35.85
2023-05-24T04:40:45.490Z,35.85
2023-05-24T04:41:45.414Z,35.87
2023-05-24T04:42:45.378Z,35.87
2023-05-24T04:43:45.368Z,35.87
2023-05-24T04:44:45.384Z,35.88
2023-05-24T04:45:45.372Z,35.86
2023-05-24T04:46:45.368Z,35.84
2023-05-24T04:47:45.447Z,35.86
2023-05-24T04:48:45.346Z,35.86
2023-05-24T04:49:45.335Z,35.88
2023-05-24T04:50:45.327Z,35.83
2023-05-24T04:51:45.324Z,35.82
2023-05-24T04:52:45.301Z,35.90
2023-05-24T04:53:45.289Z,35.88
2023-05-24T04:54:45.275Z,35.84
2023-05-24T04:55:45.284Z,35.83
2023-05-24T04:56:45.269Z,35.82
2023-05-24T04:57:45.258Z,35.86
2023-05-24T04:58:45.255Z,35.86
2023-05-24T04:59:45.254Z,35.83
2023-05-24T05:00:45.228Z,35.87
2023-05-24T05:01:45.362Z,35.80
2023-05-24T05:02:45.316Z,35.83
2023-05-24T05:03:45.255Z,35.86
2023-05-24T05:04:45.182Z,35.82
2023-05-24T05:05:45.179Z,35.81
2023-05-24T05:06:45.183Z,35.86
2023-05-24T05:07:45.147Z,35.87
2023-05-24T05:08:45.170Z,35.84
2023-05-24T05:09:45.133Z,35.84
2023-05-24T05:10:45.146Z,35.89
2023-05-24T05:11:45.121Z,35.84
2023-05-24T05:12:45.101Z,35.86
2023-05-24T05:13:45.113Z,35.84
2023-05-24T05:14:45.094Z,35.83
2023-05-24T05:15:45.086Z,35.82
2023-05-24T05:16:45.163Z,35.86
2023-05-24T05:17:45.102Z,35.83
2023-05-24T05:18:45.068Z,35.80
2023-05-24T05:19:45.069Z,35.81
2023-05-24T05:20:45.523Z,35.81
2023-05-24T05:21:45.070Z,35.86
2023-05-24T05:22:45.030Z,35.79
2023-05-24T05:23:45.030Z,35.84
2023-05-24T05:24:45.036Z,35.86
2023-05-24T05:25:45.043Z,35.83
2023-05-24T05:26:45.038Z,35.84
2023-05-24T05:27:45.191Z,35.81
2023-05-24T05:28:45.046Z,35.79
2023-05-24T05:29:45.030Z,35.79
2023-05-24T05:30:45.042Z,35.90
2023-05-24T05:31:45.023Z,35.86
2023-05-24T05:32:45.088Z,35.78
2023-05-24T05:33:44.990Z,35.84
2023-05-24T05:34:44.972Z,35.91
2023-05-24T05:35:44.969Z,36.08
2023-05-24T05:36:44.937Z,36.52
2023-05-24T05:37:44.932Z,36.58
2023-05-24T05:38:44.928Z,36.94
2023-05-24T05:39:44.967Z,37.08
2023-05-24T05:40:44.910Z,37.44
2023-05-24T05:41:45.939Z,37.54
2023-05-24T05:42:44.890Z,37.72
2023-05-24T05:43:44.870Z,37.95
2023-05-24T05:44:44.870Z,38.26
2023-05-24T05:45:44.897Z,38.61
2023-05-24T05:46:44.868Z,38.88
2023-05-24T05:47:44.889Z,39.16
2023-05-24T05:48:46.410Z,39.16
2023-05-24T05:49:44.811Z,39.46
2023-05-24T05:50:44.814Z,39.60
2023-05-24T05:51:44.857Z,39.86
2023-05-24T05:52:44.918Z,39.88
2023-05-24T05:53:45.026Z,39.89
2023-05-24T05:54:45.080Z,40.08
2023-05-24T05:55:45.084Z,40.93
2023-05-24T05:56:45.072Z,40.41
2023-05-24T05:57:45.036Z,40.47
2023-05-24T05:58:45.052Z,40.49
2023-05-24T05:59:45.046Z,40.51
2023-05-24T06:00:45.038Z,40.83
2023-05-24T06:01:44.997Z,40.53
2023-05-24T06:02:45.071Z,40.57
2023-05-24T06:03:45.324Z,40.52
2023-05-24T06:04:45.022Z,40.64
2023-05-24T06:05:44.959Z,40.83
2023-05-24T06:06:45.035Z,40.96
2023-05-24T06:07:44.999Z,40.97
2023-05-24T06:08:45.055Z,41.04
2023-05-24T06:09:45.098Z,40.95
2023-05-24T06:10:45.218Z,40.95
2023-05-24T06:11:45.222Z,41.02
2023-05-24T06:12:45.158Z,40.95
2023-05-24T06:13:45.162Z,40.94
2023-05-24T06:14:45.197Z,40.84
2023-05-24T06:15:45.170Z,40.91
2023-05-24T06:16:45.345Z,40.82
2023-05-24T06:17:45.231Z,40.41
2023-05-24T06:18:57.047Z,39.82
2023-05-24T06:19:46.090Z,39.14
2023-05-24T06:20:45.589Z,39.06
2023-05-24T06:21:45.093Z,38.74
2023-05-24T06:22:45.241Z,38.72
2023-05-24T06:23:45.071Z,38.78
2023-05-24T06:24:45.447Z,38.74
2023-05-24T06:25:45.724Z,38.65
2023-05-24T06:26:45.156Z,38.55
2023-05-24T06:27:45.431Z,38.89
2023-05-24T06:28:45.253Z,38.84
2023-05-24T06:29:45.270Z,38.86
2023-05-24T06:30:45.529Z,39.01
2023-05-24T06:31:45.229Z,39.06
2023-05-24T06:32:45.249Z,39.19
2023-05-24T06:33:52.422Z,39.31
2023-05-24T06:34:46.219Z,39.33
2023-05-24T06:35:45.221Z,39.45
2023-05-24T06:36:45.197Z,39.45
2023-05-24T06:37:45.186Z,39.49
2023-05-24T06:38:45.172Z,39.45
2023-05-24T06:39:45.159Z,39.37
2023-05-24T06:40:45.132Z,39.44
2023-05-24T06:41:45.144Z,39.59
2023-05-24T06:42:45.105Z,39.72
2023-05-24T06:43:45.156Z,39.73
2023-05-24T06:44:45.079Z,39.84
2023-05-24T06:45:45.076Z,39.91
2023-05-24T06:46:45.057Z,39.93
2023-05-24T06:47:45.114Z,40.06
2023-05-24T06:48:45.278Z,40.33
2023-05-24T06:49:45.051Z,40.18
2023-05-24T06:50:45.127Z,40.27
2023-05-24T06:51:44.985Z,40.30
2023-05-24T06:52:44.958Z,40.17
2023-05-24T06:53:44.971Z,40.16
2023-05-24T06:54:44.967Z,40.19
2023-05-24T06:55:44.973Z,40.25
2023-05-24T06:56:44.927Z,40.21
2023-05-24T06:57:44.907Z,40.14
2023-05-24T06:58:44.880Z,40.23
2023-05-24T06:59:44.880Z,40.29
2023-05-24T07:00:45.172Z,40.35
2023-05-24T07:01:45.191Z,40.36
2023-05-24T07:02:44.961Z,40.39
2023-05-24T07:03:44.928Z,40.25
2023-05-24T07:04:44.947Z,40.35
2023-05-24T07:05:44.916Z,40.43
2023-05-24T07:06:44.979Z,40.48
2023-05-24T07:07:44.951Z,40.51
2023-05-24T07:08:44.942Z,40.56
2023-05-24T07:09:45.028Z,40.55
2023-05-24T07:10:45.118Z,40.62
2023-05-24T07:11:45.031Z,40.54
2023-05-24T07:12:44.927Z,40.57
2023-05-24T07:13:44.907Z,40.60
2023-05-24T07:14:44.953Z,40.61
2023-05-24T07:15:44.877Z,40.58
2023-05-24T07:16:44.898Z,40.63
2023-05-24T07:17:44.895Z,40.61
2023-05-24T07:18:44.968Z,40.69
2023-05-24T07:19:44.794Z,40.62
2023-05-24T07:20:45.091Z,40.74
2023-05-24T07:21:44.780Z,40.70
2023-05-24T07:22:44.750Z,40.81
2023-05-24T07:23:44.709Z,40.79
2023-05-24T07:24:44.704Z,40.79
2023-05-24T07:25:44.695Z,40.87
2023-05-24T07:26:44.703Z,41.04
2023-05-24T07:27:44.659Z,40.98
2023-05-24T07:28:44.727Z,40.97
2023-05-24T07:29:45.784Z,40.95
2023-05-24T07:30:44.613Z,40.99
2023-05-24T07:31:44.663Z,41.02
2023-05-24T07:32:44.693Z,40.98
2023-05-24T07:33:44.524Z,41.09
2023-05-24T07:34:44.515Z,41.08
2023-05-24T07:35:44.493Z,41.06
2023-05-24T07:36:44.556Z,41.13
2023-05-24T07:37:44.641Z,41.22
2023-05-24T07:38:44.463Z,41.35
2023-05-24T07:39:44.453Z,41.34
2023-05-24T07:40:44.555Z,41.45
2023-05-24T07:41:44.404Z,41.47
2023-05-24T07:42:44.401Z,41.48
2023-05-24T07:43:44.372Z,41.67
2023-05-24T07:44:44.342Z,41.74
2023-05-24T07:45:44.476Z,41.72
2023-05-24T07:46:44.344Z,41.83
2023-05-24T07:47:44.363Z,41.91
2023-05-24T07:48:44.312Z,41.94
2023-05-24T07:49:44.274Z,41.97
2023-05-24T07:50:44.490Z,41.85
2023-05-24T07:51:44.309Z,41.87
2023-05-24T07:52:44.219Z,41.88
2023-05-24T07:53:44.238Z,41.72
2023-05-24T07:54:44.218Z,41.55
2023-05-24T07:55:44.363Z,41.42
2023-05-24T07:56:44.179Z,41.26
2023-05-24T07:57:44.155Z,41.28
2023-05-24T07:58:44.135Z,41.17
2023-05-24T07:59:44.125Z,41.07
2023-05-24T08:00:44.149Z,41.03
2023-05-24T08:01:44.126Z,41.09
2023-05-24T08:02:44.361Z,40.83
2023-05-24T08:03:44.292Z,40.72
2023-05-24T08:04:44.105Z,40.77
2023-05-24T08:05:44.379Z,40.82
2023-05-24T08:06:44.141Z,40.73
2023-05-24T08:07:44.128Z,40.80
2023-05-24T08:08:44.070Z,40.80
2023-05-24T08:09:44.086Z,40.55
2023-05-24T08:10:44.075Z,40.71
2023-05-24T08:11:44.067Z,40.61
2023-05-24T08:12:44.043Z,40.46
2023-05-24T08:13:44.026Z,40.55
2023-05-24T08:14:44.010Z,40.52
2023-05-24T08:15:44.187Z,40.33
2023-05-24T08:16:44.101Z,40.41
2023-05-24T08:17:43.989Z,40.40
2023-05-24T08:18:43.988Z,40.39
2023-05-24T08:19:43.936Z,40.39
2023-05-24T08:20:44.005Z,40.31
2023-05-24T08:21:43.900Z,40.28
2023-05-24T08:22:43.984Z,40.32
2023-05-24T08:23:43.870Z,40.22
2023-05-24T08:24:43.856Z,40.18
2023-05-24T08:25:44.055Z,40.30
2023-05-24T08:26:44.782Z,40.31
2023-05-24T08:27:43.830Z,40.05
2023-05-24T08:28:43.833Z,40.07
2023-05-24T08:29:43.799Z,40.08
2023-05-24T08:30:43.811Z,40.08
2023-05-24T08:31:43.870Z,39.87
2023-05-24T08:32:43.760Z,40.01
2023-05-24T08:33:43.712Z,39.99
2023-05-24T08:34:43.706Z,40.06
2023-05-24T08:35:43.955Z,39.98
2023-05-24T08:36:43.754Z,40.02
2023-05-24T08:37:43.759Z,39.88
2023-05-24T08:38:43.746Z,39.84
2023-05-24T08:39:43.754Z,39.54
2023-05-24T08:40:43.789Z,39.12
2023-05-24T08:41:45.790Z,38.80
2023-05-24T08:42:44.780Z,38.70
2023-05-24T08:43:43.769Z,38.67
2023-05-24T08:44:43.731Z,38.74
2023-05-24T08:45:44.006Z,38.66
2023-05-24T08:46:43.769Z,39.03
2023-05-24T08:47:43.775Z,39.39
2023-05-24T08:48:43.767Z,39.48
2023-05-24T08:49:43.684Z,39.34
2023-05-24T08:50:43.753Z,39.32
2023-05-24T08:51:43.646Z,39.33
2023-05-24T08:52:43.637Z,39.37
2023-05-24T08:53:43.608Z,39.29
2023-05-24T08:54:43.618Z,39.06
2023-05-24T08:55:43.924Z,39.01
2023-05-24T08:56:43.593Z,39.05
2023-05-24T08:57:43.548Z,38.92
2023-05-24T08:58:43.539Z,38.83
2023-05-24T08:59:43.519Z,38.73
2023-05-24T09:00:43.526Z,38.81
2023-05-24T09:01:43.542Z,38.98
2023-05-24T09:02:43.518Z,38.95
2023-05-24T09:03:43.506Z,38.82
2023-05-24T09:04:43.436Z,38.88
2023-05-24T09:05:43.705Z,38.86
2023-05-24T09:06:43.430Z,38.74
2023-05-24T09:07:43.412Z,38.77
2023-05-24T09:08:44.156Z,38.75
2023-05-24T09:09:43.375Z,38.69
2023-05-24T09:10:53.946Z,38.70
2023-05-24T09:11:44.337Z,38.63
2023-05-24T09:12:43.385Z,38.63
2023-05-24T09:13:43.307Z,38.55
2023-05-24T09:14:43.295Z,38.67
2023-05-24T09:15:43.410Z,38.72
2023-05-24T09:16:43.322Z,38.61
2023-05-24T09:17:43.246Z,38.55
2023-05-24T09:18:43.265Z,38.54
2023-05-24T09:19:43.176Z,38.60
2023-05-24T09:20:43.287Z,38.63
2023-05-24T09:21:44.813Z,38.59
2023-05-24T09:22:43.151Z,38.55
2023-05-24T09:23:43.107Z,38.51
2023-05-24T09:24:43.100Z,38.47
2023-05-24T09:25:43.078Z,38.49
2023-05-24T09:26:43.061Z,38.33
2023-05-24T09:27:43.034Z,38.32
2023-05-24T09:28:43.029Z,38.29
2023-05-24T09:29:42.991Z,38.28
2023-05-24T09:30:43.144Z,38.24
2023-05-24T09:31:43.039Z,38.30
2023-05-24T09:32:43.008Z,38.29
2023-05-24T09:33:42.903Z,38.31
2023-05-24T09:34:42.908Z,38.33
2023-05-24T09:35:42.914Z,38.25
2023-05-24T09:36:42.977Z,38.24
2023-05-24T09:37:42.961Z,38.15
2023-05-24T09:38:42.978Z,38.12
2023-05-24T09:39:42.971Z,38.17
2023-05-24T09:40:43.069Z,38.12
2023-05-24T09:41:43.006Z,39.12
2023-05-24T09:42:43.136Z,39.94
2023-05-24T09:43:43.030Z,40.05
2023-05-24T09:44:43.096Z,40.75
2023-05-24T09:45:43.057Z,41.19
2023-05-24T09:46:43.169Z,41.93
2023-05-24T09:47:43.211Z,42.36
2023-05-24T09:48:43.105Z,42.92
2023-05-24T09:49:43.097Z,43.33
2023-05-24T09:50:43.415Z,43.65
2023-05-24T09:51:43.302Z,43.90
2023-05-24T09:52:43.167Z,44.01
2023-05-24T09:53:43.137Z,44.23
2023-05-24T09:54:43.102Z,44.26
2023-05-24T09:55:43.113Z,44.36
2023-05-24T09:56:43.106Z,44.55
2023-05-24T09:57:43.077Z,44.65
2023-05-24T09:58:43.071Z,44.68
2023-05-24T09:59:43.018Z,44.88
2023-05-24T10:00:43.618Z,44.92
2023-05-24T10:01:43.067Z,45.01
2023-05-24T10:02:52.232Z,45.04
2023-05-24T10:03:44.056Z,45.14
2023-05-24T10:04:42.946Z,45.25
2023-05-24T10:05:42.908Z,45.42
2023-05-24T10:06:42.864Z,45.48
2023-05-24T10:07:42.816Z,45.62
2023-05-24T10:08:42.790Z,45.81
2023-05-24T10:09:42.765Z,46.05
2023-05-24T10:10:43.008Z,45.71
2023-05-24T10:11:42.757Z,45.56
2023-05-24T10:12:42.783Z,45.43
2023-05-24T10:13:42.798Z,45.24
2023-05-24T10:14:42.942Z,45.09
2023-05-24T10:15:42.838Z,44.85
2023-05-24T10:16:42.856Z,44.70
2023-05-24T10:17:42.895Z,44.59
2023-05-24T10:18:42.859Z,44.45
2023-05-24T10:19:42.841Z,44.32
2023-05-24T10:20:43.302Z,44.21
2023-05-24T10:21:42.905Z,44.05
2023-05-24T10:22:42.851Z,43.94
2023-05-24T10:23:42.778Z,43.78
2023-05-24T10:24:42.767Z,43.69
2023-05-24T10:25:42.771Z,43.42
2023-05-24T10:26:42.756Z,43.49
2023-05-24T10:27:42.713Z,43.52
2023-05-24T10:28:42.728Z,43.44
2023-05-24T10:29:42.711Z,43.33
2023-05-24T10:30:43.126Z,43.21
2023-05-24T10:31:42.788Z,43.24
2023-05-24T10:32:42.653Z,43.13
2023-05-24T10:33:42.588Z,43.15
2023-05-24T10:34:42.576Z,42.96
2023-05-24T10:35:42.574Z,42.95
2023-05-24T10:36:42.540Z,42.95
2023-05-24T10:37:42.516Z,42.88
2023-05-24T10:38:42.874Z,42.89
2023-05-24T10:39:42.457Z,43.23
2023-05-24T10:40:42.460Z,43.47
2023-05-24T10:41:42.496Z,43.63
2023-05-24T10:42:42.410Z,43.63
2023-05-24T10:43:42.482Z,43.54
2023-05-24T10:44:42.389Z,43.35
2023-05-24T10:45:42.383Z,43.19
2023-05-24T10:46:42.508Z,42.95
2023-05-24T10:47:42.344Z,42.99
2023-05-24T10:48:42.290Z,42.58
2023-05-24T10:49:42.294Z,42.34
2023-05-24T10:50:42.679Z,42.41
2023-05-24T10:51:42.347Z,42.40
2023-05-24T10:52:42.251Z,42.38
2023-05-24T10:53:42.195Z,42.21
2023-05-24T10:54:52.483Z,42.22
2023-05-24T10:55:43.168Z,41.85
2023-05-24T10:56:42.156Z,41.89
2023-05-24T10:57:42.131Z,41.92
2023-05-24T10:58:42.111Z,41.89
2023-05-24T10:59:42.079Z,41.82
2023-05-24T11:00:42.073Z,41.85
2023-05-24T11:01:42.087Z,41.43
2023-05-24T11:02:42.097Z,41.41
2023-05-24T11:03:42.018Z,41.53
2023-05-24T11:04:41.991Z,41.52
2023-05-24T11:05:43.275Z,41.45
2023-05-24T11:06:41.949Z,41.23
2023-05-24T11:07:41.927Z,41.32
2023-05-24T11:08:41.900Z,41.22
2023-05-24T11:09:41.914Z,41.10
2023-05-24T11:10:43.124Z,41.06
2023-05-24T11:11:41.837Z,41.20
2023-05-24T11:12:41.823Z,41.12
2023-05-24T11:13:41.802Z,41.04
2023-05-24T11:14:41.801Z,41.16
2023-05-24T11:15:41.830Z,41.08
2023-05-24T11:16:41.907Z,41.01
2023-05-24T11:17:43.577Z,41.00
2023-05-24T11:18:41.746Z,40.85
2023-05-24T11:19:41.715Z,40.92
2023-05-24T11:20:42.189Z,40.93
2023-05-24T11:21:41.709Z,40.83
2023-05-24T11:22:41.671Z,40.75
2023-05-24T11:23:41.655Z,40.71
2023-05-24T11:24:41.655Z,40.58
2023-05-24T11:25:41.651Z,40.58
2023-05-24T11:26:41.652Z,40.52
2023-05-24T11:27:41.626Z,40.82
2023-05-24T11:28:41.678Z,40.82
2023-05-24T11:29:41.684Z,40.90
2023-05-24T11:30:41.811Z,40.89
2023-05-24T11:31:44.055Z,40.87
2023-05-24T11:32:41.640Z,40.90
2023-05-24T11:33:41.562Z,41.05
2023-05-24T11:34:41.520Z,40.88
2023-05-24T11:35:41.528Z,40.98
2023-05-24T11:36:41.507Z,40.93
2023-05-24T11:37:46.370Z,40.77
2023-05-24T11:38:42.491Z,40.70
2023-05-24T11:39:41.466Z,40.74
2023-05-24T11:40:41.609Z,40.65
2023-05-24T11:41:41.482Z,40.70
2023-05-24T11:42:41.458Z,40.65
2023-05-24T11:43:41.421Z,40.70
2023-05-24T11:44:41.409Z,40.71
2023-05-24T11:45:41.385Z,40.80
2023-05-24T11:46:41.408Z,40.81
2023-05-24T11:47:41.370Z,40.80
2023-05-24T11:48:42.333Z,40.66
2023-05-24T11:49:41.348Z,40.62
2023-05-24T11:50:49.307Z,40.68
2023-05-24T11:51:42.443Z,40.66
2023-05-24T11:52:41.245Z,40.66
2023-05-24T11:53:41.248Z,40.73
2023-05-24T11:54:41.214Z,40.67
2023-05-24T11:55:41.356Z,40.69
2023-05-24T11:56:41.232Z,40.66
2023-05-24T11:57:41.184Z,40.63
2023-05-24T11:58:41.137Z,40.67
2023-05-24T11:59:41.129Z,40.59
2023-05-24T12:00:41.239Z,40.62
2023-05-24T12:01:41.061Z,40.55
2023-05-24T12:02:41.146Z,40.50
2023-05-24T12:03:41.166Z,40.51
2023-05-24T12:04:41.050Z,40.55
2023-05-24T12:05:40.995Z,40.50
2023-05-24T12:06:40.996Z,40.36
2023-05-24T12:07:41.002Z,40.37
2023-05-24T12:08:41.044Z,40.33
2023-05-24T12:09:40.998Z,40.27
2023-05-24T12:10:41.201Z,40.28
2023-05-24T12:11:40.964Z,40.32
2023-05-24T12:12:45.710Z,40.38
2023-05-24T12:13:41.957Z,40.32
2023-05-24T12:14:41.063Z,40.33
2023-05-24T12:15:41.010Z,40.28
2023-05-24T12:16:40.940Z,40.24
2023-05-24T12:17:40.905Z,40.30
2023-05-24T12:18:48.369Z,40.27
2023-05-24T12:19:41.841Z,40.32
2023-05-24T12:20:40.941Z,40.29
2023-05-24T12:21:40.845Z,40.27
2023-05-24T12:22:40.813Z,40.24
2023-05-24T12:23:40.785Z,40.23
2023-05-24T12:24:40.855Z,40.23
2023-05-24T12:25:40.751Z,40.17
2023-05-24T12:26:40.721Z,40.15
2023-05-24T12:27:41.152Z,40.07
2023-05-24T12:28:40.696Z,40.08
2023-05-24T12:29:41.276Z,40.02
2023-05-24T12:30:40.852Z,40.07
2023-05-24T12:31:40.644Z,40.04
2023-05-24T12:32:40.659Z,39.99
2023-05-24T12:33:40.594Z,39.94
2023-05-24T12:34:40.638Z,39.96
2023-05-24T12:35:40.650Z,40.04
2023-05-24T12:36:40.668Z,39.96
2023-05-24T12:37:40.669Z,39.88
2023-05-24T12:38:40.700Z,39.94
2023-05-24T12:39:40.667Z,39.91
2023-05-24T12:43:18.552Z,40.02
2023-05-24T12:44:18.556Z,40.01
2023-05-24T12:45:18.470Z,39.96
2023-05-24T12:46:18.502Z,39.88
2023-05-24T12:47:18.473Z,39.92
2023-05-24T12:48:18.492Z,39.91
2023-05-24T12:49:18.425Z,39.89
2023-05-24T12:50:18.410Z,39.83
2023-05-24T12:51:18.394Z,39.81
2023-05-24T12:52:18.382Z,39.76
2023-05-24T12:53:18.384Z,39.80
2023-05-24T12:54:18.387Z,39.82
2023-05-24T12:55:18.392Z,39.83